Time;durP1;ratioP1;P1;durP2;ratioP2;P2;SDS_P1;SDS_P2;PMS_P1;PMS_P2;Temp;Humidity;BMP_temperature;BMP_pressure;BME280_temperature;BME280_humidity;BME280_pressure;Samples;Min_cycle;Max_cycle;Signal;HPM_P1;HPM_P2
2024/01/17 00:02:11;;;;;;;8.00;4.10;;;-3.30;99.90;;;;;;5074877;28;20165;-72
2024/01/17 00:04:37;;;;;;;7.20;4.57;;;-3.40;99.90;;;;;;5092797;28;20181;-72
2024/01/17 00:07:03;;;;;;;7.27;4.70;;;-3.50;99.90;;;;;;5093288;28;20154;-73
2024/01/17 00:09:28;;;;;;;4.03;3.73;;;-3.50;99.90;;;;;;5093198;28;20163;-73
2024/01/17 00:11:54;;;;;;;9.60;4.60;;;-3.40;99.90;;;;;;5093159;28;20197;-73
2024/01/17 00:14:19;;;;;;;7.20;4.80;;;-3.50;99.90;;;;;;5092778;28;20181;-73
2024/01/17 00:16:45;;;;;;;10.77;5.80;;;-3.50;99.90;;;;;;5074874;28;20162;-73
2024/01/17 00:19:11;;;;;;;9.47;4.13;;;-3.40;99.90;;;;;;5093023;28;20172;-73
2024/01/17 00:21:37;;;;;;;8.80;5.30;;;-3.40;99.90;;;;;;5092858;28;20173;-72
2024/01/17 00:24:02;;;;;;;7.50;5.10;;;-3.40;99.90;;;;;;5092861;28;20307;-72
2024/01/17 00:26:28;;;;;;;7.27;5.43;;;-3.40;99.90;;;;;;5092575;28;20881;-72
2024/01/17 00:28:55;;;;;;;7.40;4.63;;;-3.40;99.90;;;;;;5074626;28;20165;-73
2024/01/17 00:31:21;;;;;;;7.53;4.70;;;-3.40;99.90;;;;;;5092801;28;20234;-73
2024/01/17 00:33:47;;;;;;;11.10;6.27;;;-3.40;99.90;;;;;;5074463;28;20944;-72
2024/01/17 00:36:14;;;;;;;7.73;4.33;;;-3.50;99.90;;;;;;5092387;28;20349;-72
2024/01/17 00:38:39;;;;;;;10.37;5.13;;;-3.40;99.90;;;;;;5092350;28;20421;-74
2024/01/17 00:41:05;;;;;;;6.00;4.23;;;-3.40;99.90;;;;;;5092700;28;20411;-72
2024/01/17 00:43:32;;;;;;;7.83;4.80;;;-3.50;99.90;;;;;;5092515;28;20170;-72
2024/01/17 00:45:58;;;;;;;7.63;4.70;;;-3.50;99.90;;;;;;5092631;28;20458;-72
2024/01/17 00:48:23;;;;;;;8.07;6.17;;;-3.60;99.90;;;;;;5092425;28;20403;-72
2024/01/17 00:50:49;;;;;;;9.80;5.10;;;-3.60;99.90;;;;;;5092210;28;20197;-72
2024/01/17 00:53:14;;;;;;;5.93;4.40;;;-3.60;99.90;;;;;;5074184;28;20667;-73
2024/01/17 00:55:40;;;;;;;11.93;4.80;;;-3.50;99.90;;;;;;5092016;28;20189;-73
2024/01/17 00:58:05;;;;;;;6.80;4.07;;;-3.40;99.90;;;;;;5092412;28;20157;-74
2024/01/17 01:00:31;;;;;;;11.43;5.07;;;-3.50;99.90;;;;;;5092311;28;20629;-73
2024/01/17 01:02:56;;;;;;;10.63;4.00;;;-3.50;99.90;;;;;;5092125;28;20188;-73
2024/01/17 01:05:22;;;;;;;8.10;5.63;;;-3.50;99.90;;;;;;5090966;28;20181;-73
2024/01/17 01:07:47;;;;;;;5.70;4.13;;;-3.40;99.90;;;;;;5091814;28;20648;-73
2024/01/17 01:10:13;;;;;;;9.43;5.97;;;-3.50;99.90;;;;;;5091736;28;20221;-73
2024/01/17 01:12:39;;;;;;;12.70;5.00;;;-3.40;99.90;;;;;;5092039;28;20197;-73
2024/01/17 01:15:05;;;;;;;8.60;5.27;;;-3.40;99.90;;;;;;5091918;28;20839;-72
2024/01/17 01:17:31;;;;;;;10.53;3.90;;;-3.30;99.90;;;;;;5092041;28;20675;-73
2024/01/17 01:19:56;;;;;;;4.77;3.37;;;-3.30;99.90;;;;;;5091313;28;20395;-73
2024/01/17 01:22:22;;;;;;;13.33;4.43;;;-3.30;99.90;;;;;;5091942;28;20395;-73
2024/01/17 01:24:48;;;;;;;3.53;3.20;;;-3.20;99.90;;;;;;5091689;28;20526;-74
2024/01/17 01:27:13;;;;;;;6.70;4.30;;;-3.20;99.90;;;;;;5091915;28;20166;-73
2024/01/17 01:29:39;;;;;;;5.03;3.13;;;-3.20;99.90;;;;;;5091626;28;20169;-73
2024/01/17 01:32:04;;;;;;;6.20;3.97;;;-3.20;99.90;;;;;;5073007;28;20193;-72
2024/01/17 01:34:30;;;;;;;6.17;4.50;;;-3.10;99.90;;;;;;5091462;28;20208;-72
2024/01/17 01:36:55;;;;;;;7.60;3.93;;;-3.10;99.90;;;;;;5073675;28;20177;-72
2024/01/17 01:39:21;;;;;;;5.97;3.87;;;-3.10;99.90;;;;;;5091803;28;20168;-72
2024/01/17 01:41:47;;;;;;;8.20;4.57;;;-3.10;99.90;;;;;;5091556;28;20163;-72
2024/01/17 01:44:12;;;;;;;17.03;5.23;;;-3.20;99.90;;;;;;5091514;28;20190;-73
2024/01/17 01:46:38;;;;;;;3.60;2.93;;;-3.20;99.90;;;;;;5091439;28;20193;-73
2024/01/17 01:49:04;;;;;;;10.40;4.30;;;-3.30;99.90;;;;;;5092736;28;20602;-73
2024/01/17 01:51:30;;;;;;;9.93;6.20;;;-3.20;99.90;;;;;;5077525;28;20538;-73
2024/01/17 01:54:00;;;;;;;5.37;4.87;;;-3.30;99.90;;;;;;5095899;28;20740;-73
2024/01/17 01:56:29;;;;;;;7.97;5.30;;;-3.50;99.90;;;;;;5095588;28;20453;-72
2024/01/17 01:58:56;;;;;;;10.60;5.30;;;-3.50;99.90;;;;;;5095595;28;20431;-72
2024/01/17 02:01:23;;;;;;;7.53;4.77;;;-3.50;99.90;;;;;;5077316;28;20510;-73
2024/01/17 02:03:48;;;;;;;10.80;5.43;;;-3.40;99.90;;;;;;5095510;28;20427;-73
2024/01/17 02:06:15;;;;;;;10.50;3.70;;;-3.50;99.90;;;;;;5095317;28;20403;-73
2024/01/17 02:08:41;;;;;;;8.00;4.70;;;-3.50;99.90;;;;;;5077321;28;20173;-73
2024/01/17 02:11:07;;;;;;;11.43;7.20;;;-3.50;99.90;;;;;;5095430;28;20459;-73
2024/01/17 02:13:33;;;;;;;4.50;4.10;;;-3.60;99.90;;;;;;5077122;28;20777;-73
2024/01/17 02:16:00;;;;;;;7.07;4.87;;;-3.50;99.90;;;;;;5095205;28;20161;-72
2024/01/17 02:18:26;;;;;;;14.33;5.47;;;-3.50;99.90;;;;;;5095069;28;20174;-72
2024/01/17 02:20:51;;;;;;;14.03;5.60;;;-3.50;99.90;;;;;;5095155;28;20411;-72
2024/01/17 02:23:28;;;;;;;10.60;5.37;;;-3.60;99.90;;;;;;5095238;28;20173;-72
2024/01/17 02:25:54;;;;;;;7.97;4.43;;;-3.60;99.90;;;;;;5094978;28;20535;-73
2024/01/17 02:28:20;;;;;;;13.90;4.87;;;-3.50;99.90;;;;;;5077119;28;20818;-73
2024/01/17 02:30:46;;;;;;;12.57;6.03;;;-3.50;99.90;;;;;;5095092;28;20636;-73
2024/01/17 02:33:13;;;;;;;9.90;5.53;;;-3.60;99.90;;;;;;5094896;28;20193;-72
2024/01/17 02:35:39;;;;;;;16.77;6.57;;;-3.60;99.90;;;;;;5076565;28;20185;-74
2024/01/17 02:38:04;;;;;;;10.50;5.40;;;-3.60;99.90;;;;;;5094980;28;20402;-73
2024/01/17 02:40:30;;;;;;;8.17;5.27;;;-3.50;99.90;;;;;;5094930;28;20771;-73
2024/01/17 02:42:55;;;;;;;7.20;5.63;;;-3.40;99.90;;;;;;5094592;28;20188;-73
2024/01/17 02:45:21;;;;;;;9.27;6.03;;;-3.50;99.90;;;;;;5094466;28;20189;-73
2024/01/17 02:47:47;;;;;;;5.63;4.43;;;-3.40;99.90;;;;;;5094739;28;20257;-73
2024/01/17 02:50:14;;;;;;;11.17;7.13;;;-3.40;99.90;;;;;;5094740;28;20208;-72
2024/01/17 02:52:41;;;;;;;10.80;5.67;;;-3.40;99.90;;;;;;5094562;28;20177;-73
2024/01/17 02:55:08;;;;;;;13.77;6.43;;;-3.40;99.90;;;;;;5094377;28;20426;-72
2024/01/17 02:57:34;;;;;;;16.37;7.03;;;-3.40;99.90;;;;;;5076423;28;20826;-72
2024/01/17 02:59:59;;;;;;;8.40;5.13;;;-3.40;99.90;;;;;;5076382;28;20396;-73
2024/01/17 03:02:25;;;;;;;11.87;6.67;;;-3.40;99.90;;;;;;5094394;28;20641;-74
2024/01/17 03:04:50;;;;;;;13.10;6.30;;;-3.40;99.90;;;;;;5076387;28;20553;-73
2024/01/17 03:07:16;;;;;;;9.30;6.80;;;-3.40;99.90;;;;;;5094600;28;20201;-73
2024/01/17 03:09:41;;;;;;;16.27;7.43;;;-3.40;99.90;;;;;;5094471;28;20162;-74
2024/01/17 03:12:07;;;;;;;13.10;6.83;;;-3.30;99.90;;;;;;5094312;28;20205;-74
2024/01/17 03:14:32;;;;;;;8.13;4.60;;;-3.40;99.90;;;;;;5094169;28;20235;-74
2024/01/17 03:17:02;;;;;;;6.80;5.53;;;-3.40;99.90;;;;;;5094084;28;20624;-74
2024/01/17 03:19:27;;;;;;;8.73;5.53;;;-3.40;99.90;;;;;;5076181;28;20180;-72
2024/01/17 03:21:53;;;;;;;8.60;6.17;;;-3.30;99.90;;;;;;5075982;28;20407;-73
2024/01/17 03:24:19;;;;;;;10.67;6.13;;;-3.40;99.90;;;;;;5093997;28;20193;-73
2024/01/17 03:26:44;;;;;;;9.33;5.77;;;-3.50;99.90;;;;;;5094071;28;20204;-73
2024/01/17 03:29:10;;;;;;;10.80;6.37;;;-3.60;99.90;;;;;;5094120;28;20172;-74
2024/01/17 03:31:35;;;;;;;13.43;8.30;;;-3.60;99.90;;;;;;5093713;28;20186;-73
2024/01/17 03:34:01;;;;;;;9.13;6.43;;;-3.70;99.90;;;;;;5093781;28;20194;-72
2024/01/17 03:36:26;;;;;;;10.43;6.43;;;-3.60;99.90;;;;;;5075670;28;20172;-72
2024/01/17 03:38:52;;;;;;;11.03;6.17;;;-3.60;99.90;;;;;;5093845;28;20197;-72
2024/01/17 03:41:18;;;;;;;8.50;6.57;;;-3.50;99.90;;;;;;5093696;28;20161;-72
2024/01/17 03:43:44;;;;;;;12.07;5.80;;;-3.50;99.90;;;;;;5093506;28;20431;-72
2024/01/17 03:46:09;;;;;;;7.27;5.57;;;-3.50;99.90;;;;;;5093314;28;20640;-72
2024/01/17 03:48:35;;;;;;;9.30;6.03;;;-3.50;99.90;;;;;;5093566;28;20166;-73
2024/01/17 03:51:00;;;;;;;9.83;6.10;;;-3.40;99.90;;;;;;5093370;28;20200;-73
2024/01/17 03:53:26;;;;;;;7.57;5.77;;;-3.40;99.90;;;;;;5093521;28;20238;-73
2024/01/17 03:55:51;;;;;;;17.60;5.67;;;-3.40;99.90;;;;;;5093211;28;20162;-73
2024/01/17 03:58:17;;;;;;;11.07;5.93;;;-3.30;99.90;;;;;;5093383;28;20162;-73
2024/01/17 04:00:44;;;;;;;13.30;6.47;;;-3.30;99.90;;;;;;5093384;28;20169;-73
2024/01/17 04:03:12;;;;;;;12.00;6.33;;;-3.20;99.90;;;;;;5093351;28;20196;-73
2024/01/17 04:05:38;;;;;;;10.93;5.73;;;-3.20;99.90;;;;;;5092877;28;20790;-73
2024/01/17 04:08:05;;;;;;;14.47;7.47;;;-3.20;99.90;;;;;;5093259;28;20400;-73
2024/01/17 04:10:31;;;;;;;10.17;6.77;;;-3.20;99.90;;;;;;5093219;28;20450;-73
2024/01/17 04:12:56;;;;;;;14.53;6.43;;;-3.30;99.90;;;;;;5092649;28;20395;-73
2024/01/17 04:15:22;;;;;;;9.93;6.10;;;-3.30;99.90;;;;;;5092792;28;20416;-72
2024/01/17 04:17:47;;;;;;;10.67;6.37;;;-3.30;99.90;;;;;;5093124;28;20655;-73
2024/01/17 04:20:14;;;;;;;19.50;8.77;;;-3.30;99.90;;;;;;5092983;28;20196;-73
2024/01/17 04:22:39;;;;;;;12.23;7.97;;;-3.20;99.90;;;;;;5074747;28;20536;-73
2024/01/17 04:25:05;;;;;;;10.50;6.20;;;-3.20;99.90;;;;;;5092625;28;20426;-73
2024/01/17 04:27:31;;;;;;;13.30;6.17;;;-3.40;99.90;;;;;;5074357;28;20169;-73
2024/01/17 04:29:58;;;;;;;10.63;5.80;;;-3.40;99.90;;;;;;5092500;28;20404;-73
2024/01/17 04:32:24;;;;;;;13.57;7.17;;;-3.30;99.90;;;;;;5074386;28;20399;-72
2024/01/17 04:34:49;;;;;;;9.90;6.20;;;-3.30;99.90;;;;;;5092413;28;20442;-72
2024/01/17 04:37:16;;;;;;;13.60;6.73;;;-3.40;99.90;;;;;;5092552;28;20404;-72
2024/01/17 04:39:41;;;;;;;7.40;5.80;;;-3.30;99.90;;;;;;5092656;28;20172;-73
2024/01/17 04:42:07;;;;;;;9.90;5.53;;;-3.30;99.90;;;;;;5092307;28;20431;-72
2024/01/17 04:44:33;;;;;;;9.73;6.43;;;-3.30;99.90;;;;;;5092141;28;20239;-72
2024/01/17 04:46:59;;;;;;;8.07;5.23;;;-3.30;99.90;;;;;;5074228;28;20711;-72
2024/01/17 04:49:27;;;;;;;8.10;6.13;;;-3.30;99.90;;;;;;5074385;28;20531;-72
2024/01/17 04:51:56;;;;;;;12.40;6.93;;;-3.40;99.90;;;;;;5092090;28;20458;-72
2024/01/17 04:54:23;;;;;;;10.67;5.93;;;-3.30;99.90;;;;;;5073860;28;20533;-72
2024/01/17 04:56:49;;;;;;;7.03;5.50;;;-3.30;99.90;;;;;;5092319;28;20404;-72
2024/01/17 04:59:14;;;;;;;18.87;9.27;;;-3.40;99.90;;;;;;5092233;28;20448;-73
2024/01/17 05:01:40;;;;;;;10.50;6.03;;;-3.40;99.90;;;;;;5092250;28;20744;-72
2024/01/17 05:04:05;;;;;;;15.07;7.90;;;-3.50;99.90;;;;;;5073901;28;20204;-72
2024/01/17 05:06:32;;;;;;;10.83;7.53;;;-3.50;99.90;;;;;;5073811;28;20652;-73
2024/01/17 05:08:59;;;;;;;16.00;7.63;;;-3.40;99.90;;;;;;5092112;28;20295;-73
2024/01/17 05:11:25;;;;;;;19.37;8.47;;;-3.40;99.90;;;;;;5092131;28;20446;-73
2024/01/17 05:13:50;;;;;;;17.53;7.50;;;-3.30;99.90;;;;;;5073883;28;20458;-74
2024/01/17 05:16:17;;;;;;;12.53;7.60;;;-3.30;99.90;;;;;;5091854;28;20403;-74
2024/01/17 05:18:43;;;;;;;13.23;8.30;;;-3.20;99.90;;;;;;5092080;28;20158;-74
2024/01/17 05:21:08;;;;;;;14.83;8.43;;;-3.20;99.90;;;;;;5092045;28;20407;-73
2024/01/17 05:23:34;;;;;;;12.13;7.93;;;-3.10;99.90;;;;;;5091163;28;20165;-73
2024/01/17 05:25:59;;;;;;;10.80;7.10;;;-3.10;99.90;;;;;;5091847;28;20215;-74
2024/01/17 05:28:25;;;;;;;9.10;6.90;;;-3.10;99.90;;;;;;5091972;28;20216;-74
2024/01/17 05:30:50;;;;;;;9.83;6.20;;;-3.10;99.90;;;;;;5091743;28;20598;-74
2024/01/17 05:33:16;;;;;;;9.17;6.70;;;-3.10;99.90;;;;;;5091907;28;20174;-73
2024/01/17 05:35:42;;;;;;;15.63;7.13;;;-3.10;99.90;;;;;;5091707;28;20177;-74
2024/01/17 05:38:07;;;;;;;10.73;7.13;;;-3.10;99.90;;;;;;5092001;28;20172;-74
2024/01/17 05:40:33;;;;;;;15.83;7.83;;;-3.10;99.90;;;;;;5073646;28;20180;-73
2024/01/17 05:43:00;;;;;;;9.17;6.37;;;-3.00;99.90;;;;;;5091730;28;20165;-74
2024/01/17 05:45:25;;;;;;;13.63;7.87;;;-2.90;99.90;;;;;;5091610;28;20188;-73
2024/01/17 05:47:51;;;;;;;18.30;7.83;;;-2.90;99.90;;;;;;5091666;28;20774;-74
2024/01/17 05:50:16;;;;;;;15.93;7.60;;;-2.90;99.90;;;;;;5091730;28;20189;-74
2024/01/17 05:52:43;;;;;;;11.30;8.30;;;-2.80;99.90;;;;;;5073420;28;20268;-74
2024/01/17 05:55:10;;;;;;;16.20;7.87;;;-2.80;99.90;;;;;;5091509;28;20196;-73
2024/01/17 05:57:36;;;;;;;15.07;8.13;;;-2.70;99.90;;;;;;5091475;28;20399;-73
2024/01/17 06:00:03;;;;;;;11.90;6.30;;;-2.70;99.90;;;;;;5091498;28;20906;-73
2024/01/17 06:02:29;;;;;;;13.63;6.80;;;-2.70;99.90;;;;;;5091393;28;20399;-73
2024/01/17 06:04:55;;;;;;;11.70;7.53;;;-2.70;99.90;;;;;;5091207;28;20930;-73
2024/01/17 06:07:20;;;;;;;12.23;7.50;;;-2.70;99.90;;;;;;5091501;28;20166;-73
2024/01/17 06:09:46;;;;;;;14.23;8.80;;;-2.70;99.90;;;;;;5091481;28;20528;-73
2024/01/17 06:12:12;;;;;;;10.80;6.90;;;-2.70;99.90;;;;;;5073155;28;20455;-72
2024/01/17 06:14:39;;;;;;;11.60;7.13;;;-2.70;99.90;;;;;;5091235;28;20671;-72
2024/01/17 06:17:05;;;;;;;14.37;8.60;;;-2.70;99.90;;;;;;5091407;28;20633;-73
2024/01/17 06:19:31;;;;;;;17.00;7.63;;;-2.60;99.90;;;;;;5091455;28;20403;-72
2024/01/17 06:21:56;;;;;;;13.97;7.47;;;-2.60;99.90;;;;;;5091346;28;20581;-73
2024/01/17 06:24:22;;;;;;;11.73;7.37;;;-2.70;99.90;;;;;;5091163;28;20224;-73
2024/01/17 06:26:47;;;;;;;9.50;6.63;;;-2.50;99.90;;;;;;5091251;28;20174;-73
2024/01/17 06:29:13;;;;;;;13.07;7.00;;;-2.50;99.90;;;;;;5091351;28;20166;-73
2024/01/17 06:31:38;;;;;;;12.10;6.60;;;-2.50;99.90;;;;;;5091253;28;20196;-73
2024/01/17 06:34:04;;;;;;;19.83;6.00;;;-2.60;99.90;;;;;;5091335;28;20182;-73
2024/01/17 06:36:29;;;;;;;8.17;6.50;;;-2.60;99.90;;;;;;5076176;28;20200;-73
2024/01/17 06:38:55;;;;;;;15.37;6.47;;;-2.50;99.90;;;;;;5095064;28;20189;-73
2024/01/17 06:41:20;;;;;;;12.10;7.60;;;-2.50;99.90;;;;;;5094936;28;20310;-73
2024/01/17 06:43:46;;;;;;;11.43;6.97;;;-2.40;99.90;;;;;;5094846;28;20188;-73
2024/01/17 06:46:12;;;;;;;11.33;6.30;;;-2.40;99.90;;;;;;5094582;28;20168;-73
2024/01/17 06:48:37;;;;;;;18.80;5.93;;;-2.40;99.90;;;;;;5094737;28;20166;-73
2024/01/17 06:51:04;;;;;;;15.00;6.63;;;-2.40;99.90;;;;;;5076378;28;20208;-73
2024/01/17 06:53:31;;;;;;;9.50;6.30;;;-2.30;99.90;;;;;;5094499;28;20153;-73
2024/01/17 06:55:56;;;;;;;13.43;6.90;;;-2.30;99.90;;;;;;5094477;28;20901;-72
2024/01/17 06:58:22;;;;;;;12.40;6.03;;;-2.20;99.90;;;;;;5094768;28;20410;-73
2024/01/17 07:00:48;;;;;;;13.00;6.40;;;-2.10;99.90;;;;;;5094676;28;20270;-72
2024/01/17 07:03:13;;;;;;;10.10;6.03;;;-2.10;99.90;;;;;;5094635;28;20819;-72
2024/01/17 07:05:39;;;;;;;12.50;6.10;;;-2.10;99.90;;;;;;5094298;28;20614;-73
2024/01/17 07:08:05;;;;;;;11.50;7.13;;;-2.10;99.90;;;;;;5094482;28;20656;-73
2024/01/17 07:10:31;;;;;;;18.17;7.50;;;-2.00;99.90;;;;;;5094138;28;20457;-73
2024/01/17 07:12:56;;;;;;;12.93;6.73;;;-2.00;99.90;;;;;;5076145;28;20531;-68
2024/01/17 07:15:22;;;;;;;11.23;6.00;;;-1.90;99.90;;;;;;5094096;28;20182;-67
2024/01/17 07:17:47;;;;;;;13.20;7.27;;;-1.80;99.90;;;;;;5094362;28;20244;-68
2024/01/17 07:20:13;;;;;;;9.80;4.83;;;-1.80;99.90;;;;;;5094297;28;20198;-68
2024/01/17 07:22:42;;;;;;;15.83;6.37;;;-1.60;99.90;;;;;;5094228;28;20170;-67
2024/01/17 07:25:10;;;;;;;10.27;5.43;;;-1.60;99.90;;;;;;5093881;28;20594;-68
2024/01/17 07:27:36;;;;;;;14.53;5.83;;;-1.70;99.90;;;;;;5094010;28;20399;-69
2024/01/17 07:30:01;;;;;;;6.27;5.40;;;-1.50;99.90;;;;;;5094057;28;20404;-68
2024/01/17 07:32:27;;;;;;;8.63;5.70;;;-1.50;99.90;;;;;;5093908;28;20744;-68
2024/01/17 07:34:52;;;;;;;10.50;6.03;;;-1.50;99.90;;;;;;5093742;28;20184;-68
2024/01/17 07:37:18;;;;;;;11.43;6.33;;;-1.50;99.90;;;;;;5093779;28;20158;-68
2024/01/17 07:39:43;;;;;;;8.00;5.50;;;-1.50;99.90;;;;;;5093693;28;20685;-68
2024/01/17 07:42:09;;;;;;;15.97;6.50;;;-1.40;99.90;;;;;;5093799;28;20161;-68
2024/01/17 07:44:35;;;;;;;12.80;5.77;;;-1.40;99.90;;;;;;5093311;28;20284;-68
2024/01/17 07:47:01;;;;;;;7.60;5.13;;;-1.40;99.90;;;;;;5092805;28;20172;-69
2024/01/17 07:49:27;;;;;;;6.23;5.30;;;-1.30;99.90;;;;;;5093139;28;20487;-69
2024/01/17 07:51:52;;;;;;;9.97;5.87;;;-1.30;99.90;;;;;;5093404;28;20197;-68
2024/01/17 07:54:18;;;;;;;8.47;6.57;;;-1.20;99.90;;;;;;5093221;28;20252;-70
2024/01/17 07:56:43;;;;;;;12.80;6.20;;;-1.20;99.90;;;;;;5093296;28;20663;-69
2024/01/17 07:59:09;;;;;;;9.90;5.97;;;-1.20;99.90;;;;;;5093343;28;20161;-70
2024/01/17 08:01:35;;;;;;;11.50;5.13;;;-1.10;99.90;;;;;;5093303;28;20189;-69
2024/01/17 08:04:00;;;;;;;11.07;5.87;;;-1.10;99.90;;;;;;5093296;28;20189;-69
2024/01/17 08:06:26;;;;;;;10.80;5.37;;;-1.10;99.90;;;;;;5092975;28;20177;-69
2024/01/17 08:08:52;;;;;;;11.17;5.50;;;-1.00;99.90;;;;;;5093115;28;20181;-69
2024/01/17 08:11:18;;;;;;;9.03;5.93;;;-1.00;99.90;;;;;;5093154;28;20220;-69
2024/01/17 08:13:44;;;;;;;7.60;5.90;;;-0.90;99.90;;;;;;5093108;28;20882;-69
2024/01/17 08:16:10;;;;;;;9.53;6.03;;;-0.80;99.90;;;;;;5092949;28;20169;-69
2024/01/17 08:18:36;;;;;;;10.23;6.90;;;-0.80;99.90;;;;;;5093063;28;20407;-68
2024/01/17 08:21:02;;;;;;;6.43;5.30;;;-0.80;99.90;;;;;;5093004;28;20808;-69
2024/01/17 08:23:28;;;;;;;13.87;6.07;;;-0.80;99.90;;;;;;5092881;28;20174;-68
2024/01/17 08:25:53;;;;;;;10.17;5.87;;;-0.80;99.90;;;;;;5092738;28;20403;-69
2024/01/17 08:28:19;;;;;;;9.40;5.10;;;-0.70;99.90;;;;;;5092925;28;20173;-69
2024/01/17 08:30:44;;;;;;;11.13;6.00;;;-0.70;99.90;;;;;;5092821;28;20181;-69
2024/01/17 08:33:10;;;;;;;7.87;6.43;;;-0.80;99.90;;;;;;5092850;28;20170;-69
2024/01/17 08:35:35;;;;;;;7.70;5.70;;;-0.70;99.90;;;;;;5092578;28;20235;-68
2024/01/17 08:38:01;;;;;;;7.70;5.70;;;-0.60;99.90;;;;;;5092561;28;20177;-69
2024/01/17 08:40:27;;;;;;;10.43;6.73;;;-0.60;99.90;;;;;;5092779;28;20172;-69
2024/01/17 08:42:52;;;;;;;8.20;5.40;;;-0.60;99.90;;;;;;5092576;28;20173;-69
2024/01/17 08:45:18;;;;;;;6.90;5.13;;;-0.50;99.90;;;;;;5092429;28;20236;-69
2024/01/17 08:47:44;;;;;;;12.23;6.73;;;-0.60;99.90;;;;;;5092172;28;20216;-69
2024/01/17 08:50:13;;;;;;;9.27;5.60;;;-0.50;99.90;;;;;;5092394;28;20172;-68
2024/01/17 08:52:38;;;;;;;7.27;5.37;;;-0.50;99.90;;;;;;5092377;28;20424;-68
2024/01/17 08:55:08;;;;;;;10.93;6.40;;;-0.50;99.90;;;;;;5092107;28;20971;-68
2024/01/17 08:57:37;;;;;;;11.93;6.93;;;-0.50;99.90;;;;;;5092371;28;20165;-68
2024/01/17 09:00:06;;;;;;;6.23;4.63;;;-0.50;99.90;;;;;;5092439;28;20388;-68
2024/01/17 09:02:31;;;;;;;7.70;5.30;;;-0.60;99.90;;;;;;5092336;28;20396;-68
2024/01/17 09:04:57;;;;;;;10.87;6.43;;;-0.60;99.90;;;;;;5091995;28;20573;-68
2024/01/17 09:07:23;;;;;;;9.93;6.07;;;-0.60;99.90;;;;;;5092280;28;20189;-68
2024/01/17 09:09:49;;;;;;;13.40;6.27;;;-0.50;99.90;;;;;;5092227;28;20711;-68
2024/01/17 09:12:17;;;;;;;10.93;5.70;;;-0.50;99.90;;;;;;5092176;28;20453;-68
2024/01/17 09:14:43;;;;;;;9.93;4.93;;;-0.50;99.90;;;;;;5091831;28;20239;-68
2024/01/17 09:17:09;;;;;;;11.83;5.93;;;-0.50;99.90;;;;;;5092063;28;20412;-68
2024/01/17 09:19:34;;;;;;;10.53;6.57;;;-0.50;99.90;;;;;;5092020;28;20399;-68
2024/01/17 09:22:00;;;;;;;10.90;5.90;;;-0.50;99.90;;;;;;5092030;28;20403;-68
2024/01/17 09:24:26;;;;;;;11.53;6.60;;;-0.50;99.90;;;;;;5091724;28;20558;-69
2024/01/17 09:26:52;;;;;;;12.50;6.53;;;-0.40;99.90;;;;;;5091929;28;20353;-68
2024/01/17 09:29:18;;;;;;;18.47;6.47;;;-0.30;99.90;;;;;;5092016;28;20914;-69
2024/01/17 09:31:43;;;;;;;12.87;6.27;;;-0.30;99.90;;;;;;5092356;28;20189;-69
2024/01/17 09:34:09;;;;;;;11.43;7.87;;;-0.20;99.90;;;;;;5091774;28;20177;-69
2024/01/17 09:36:34;;;;;;;12.57;6.87;;;-0.20;99.90;;;;;;5091584;28;20189;-68
2024/01/17 09:39:00;;;;;;;15.17;6.50;;;-0.20;99.90;;;;;;5091665;28;20165;-68
2024/01/17 09:41:25;;;;;;;13.00;6.20;;;-0.20;99.90;;;;;;5091764;28;20222;-69
2024/01/17 09:43:51;;;;;;;12.30;6.57;;;-0.10;99.90;;;;;;5091720;28;20193;-68
2024/01/17 09:46:18;;;;;;;8.70;5.30;;;-0.10;99.90;;;;;;5091567;28;20691;-68
2024/01/17 09:48:44;;;;;;;13.20;6.93;;;0.00;99.90;;;;;;5091819;28;20779;-68
2024/01/17 09:51:16;;;;;;;7.67;5.30;;;0.00;99.90;;;;;;5091568;28;20466;-68
2024/01/17 09:53:46;;;;;;;7.53;5.27;;;0.00;99.90;;;;;;5091605;28;20497;-68
2024/01/17 09:56:12;;;;;;;9.93;5.90;;;0.10;99.90;;;;;;5091353;28;20403;-68
2024/01/17 09:58:42;;;;;;;8.90;6.20;;;0.20;99.90;;;;;;5091681;28;20407;-68
2024/01/17 10:01:10;;;;;;;9.00;5.70;;;0.30;99.90;;;;;;5091571;28;20427;-68
2024/01/17 10:03:39;;;;;;;9.83;6.50;;;0.20;99.90;;;;;;5091388;28;20427;-67
2024/01/17 10:06:07;;;;;;;8.73;6.20;;;0.20;99.90;;;;;;5091093;28;20400;-67
2024/01/17 10:08:33;;;;;;;6.90;5.97;;;0.20;99.90;;;;;;5091616;28;20395;-67
2024/01/17 10:10:59;;;;;;;8.90;6.23;;;0.20;99.90;;;;;;5093745;28;20447;-68
2024/01/17 10:13:24;;;;;;;10.90;6.87;;;0.30;99.90;;;;;;5095288;28;20507;-68
2024/01/17 10:15:50;;;;;;;10.90;6.83;;;0.40;99.90;;;;;;5095034;28;20162;-68
2024/01/17 10:18:15;;;;;;;12.13;6.77;;;0.30;99.90;;;;;;5095332;28;20169;-67
2024/01/17 10:20:42;;;;;;;15.17;6.90;;;0.40;99.90;;;;;;5077021;28;20666;-67
2024/01/17 10:23:08;;;;;;;20.10;6.27;;;0.40;99.90;;;;;;5094894;28;20170;-69
2024/01/17 10:25:52;;;;;;;8.97;6.47;;;0.60;99.90;;;;;;5094866;28;20933;-67
2024/01/17 10:28:18;;;;;;;13.93;6.30;;;0.60;99.90;;;;;;5095180;28;20399;-67
2024/01/17 10:30:44;;;;;;;9.50;6.20;;;0.50;99.90;;;;;;5094851;28;20950;-67
2024/01/17 10:33:09;;;;;;;12.00;5.83;;;0.60;99.90;;;;;;5095162;28;20173;-67
2024/01/17 10:35:35;;;;;;;12.93;6.57;;;0.60;99.90;;;;;;5094809;28;20193;-68
2024/01/17 10:38:02;;;;;;;8.53;5.93;;;0.60;99.90;;;;;;5094932;28;20261;-67
2024/01/17 10:40:28;;;;;;;11.13;7.03;;;0.60;99.90;;;;;;5095012;28;20170;-67
2024/01/17 10:43:10;;;;;;;13.70;5.90;;;0.70;99.90;;;;;;5094970;28;20415;-67
2024/01/17 10:45:37;;;;;;;11.17;7.50;;;0.70;99.90;;;;;;5094633;28;20194;-68
2024/01/17 10:48:04;;;;;;;10.47;6.30;;;0.70;99.90;;;;;;5094907;28;20407;-67
2024/01/17 10:50:30;;;;;;;8.60;5.60;;;0.70;99.90;;;;;;5094690;28;20863;-68
2024/01/17 10:53:06;;;;;;;7.17;5.83;;;0.70;99.90;;;;;;5094626;28;20427;-68
2024/01/17 10:55:36;;;;;;;11.97;6.40;;;0.70;99.90;;;;;;5094446;28;20239;-68
2024/01/17 10:58:12;;;;;;;17.20;7.53;;;0.80;99.90;;;;;;5094754;28;20774;-69
2024/01/17 11:00:44;;;;;;;14.37;7.20;;;0.90;99.90;;;;;;5094657;28;20403;-68
2024/01/17 11:03:16;;;;;;;14.40;6.90;;;0.80;99.90;;;;;;5094618;28;20406;-69
2024/01/17 11:05:49;;;;;;;11.60;8.13;;;0.90;99.90;;;;;;5094186;28;20427;-69
2024/01/17 11:08:18;;;;;;;12.03;7.30;;;0.90;99.90;;;;;;5094260;28;20403;-70
2024/01/17 11:10:45;;;;;;;11.57;7.63;;;1.00;99.90;;;;;;5094334;28;20505;-69
2024/01/17 11:13:16;;;;;;;15.10;9.87;;;1.00;99.90;;;;;;5094370;28;20409;-68
2024/01/17 11:15:43;;;;;;;10.17;6.93;;;1.00;99.90;;;;;;5094004;28;20812;-69
2024/01/17 11:18:10;;;;;;;12.90;8.27;;;1.00;99.90;;;;;;5076033;28;20408;-69
2024/01/17 11:20:37;;;;;;;16.13;8.40;;;0.90;99.90;;;;;;5093928;28;20499;-69
2024/01/17 11:23:04;;;;;;;8.70;6.90;;;1.00;99.90;;;;;;5092956;28;20441;-68
2024/01/17 11:25:47;;;;;;;10.27;7.13;;;1.00;99.90;;;;;;5093818;28;20419;-68
2024/01/17 11:28:35;;;;;;;12.00;6.77;;;0.90;99.90;;;;;;5094093;28;20402;-67
2024/01/17 11:31:11;;;;;;;12.30;7.60;;;0.90;99.90;;;;;;5093852;28;20486;-68
2024/01/17 11:33:38;;;;;;;8.70;6.27;;;0.90;99.90;;;;;;5093825;28;20442;-68
2024/01/17 11:36:05;;;;;;;13.93;6.97;;;0.90;99.90;;;;;;5093710;28;20407;-69
2024/01/17 11:38:32;;;;;;;11.60;8.80;;;0.90;99.90;;;;;;5093907;28;20431;-69
2024/01/17 11:41:05;;;;;;;13.00;8.13;;;0.90;99.90;;;;;;5093734;28;20423;-68
2024/01/17 11:43:33;;;;;;;13.07;6.93;;;0.90;99.90;;;;;;5093666;28;20428;-68
2024/01/17 11:46:01;;;;;;;11.43;7.80;;;0.90;99.90;;;;;;5075113;28;20407;-68
2024/01/17 11:48:28;;;;;;;10.27;6.80;;;0.90;99.90;;;;;;5093590;28;20442;-69
2024/01/17 11:50:57;;;;;;;9.70;6.93;;;0.90;99.90;;;;;;5093290;28;20787;-68
2024/01/17 11:53:23;;;;;;;10.20;7.57;;;0.90;99.90;;;;;;5075643;28;20450;-68
2024/01/17 11:55:50;;;;;;;10.40;6.93;;;1.00;99.90;;;;;;5093223;28;20770;-68
2024/01/17 11:58:16;;;;;;;9.43;6.80;;;1.00;99.90;;;;;;5093410;28;20408;-68
2024/01/17 12:00:41;;;;;;;15.40;8.23;;;1.00;99.90;;;;;;5093387;28;20486;-68
2024/01/17 12:03:07;;;;;;;12.90;8.50;;;0.90;99.90;;;;;;5093331;28;20491;-67
2024/01/17 12:05:36;;;;;;;8.00;6.53;;;1.10;99.90;;;;;;5092831;28;20193;-68
2024/01/17 12:08:05;;;;;;;15.07;8.10;;;1.10;99.90;;;;;;5093241;28;20248;-67
2024/01/17 12:10:31;;;;;;;12.80;8.50;;;1.20;99.90;;;;;;5093118;28;20530;-67
2024/01/17 12:12:57;;;;;;;13.07;8.27;;;1.30;99.90;;;;;;5093049;28;20426;-68
2024/01/17 12:15:23;;;;;;;10.83;8.20;;;1.30;99.90;;;;;;5092661;28;20451;-68
2024/01/17 12:17:50;;;;;;;13.57;8.17;;;1.40;99.90;;;;;;5092927;28;20387;-67
2024/01/17 12:20:16;;;;;;;12.10;8.10;;;1.40;99.90;;;;;;5092729;28;20182;-68
2024/01/17 12:22:50;;;;;;;15.47;9.20;;;1.40;99.90;;;;;;5092910;28;20399;-67
2024/01/17 12:25:17;;;;;;;15.93;8.50;;;1.40;99.90;;;;;;5092593;28;20862;-68
2024/01/17 12:27:42;;;;;;;9.37;7.77;;;1.40;99.90;;;;;;5092679;28;20462;-69
2024/01/17 12:30:08;;;;;;;10.03;7.43;;;1.30;99.90;;;;;;5092610;28;20447;-68
2024/01/17 12:32:37;;;;;;;11.80;8.53;;;1.40;99.90;;;;;;5092196;28;20220;-68
2024/01/17 12:35:03;;;;;;;11.57;9.97;;;1.30;99.90;;;;;;5092182;28;20193;-68
2024/01/17 12:37:29;;;;;;;11.07;8.23;;;1.40;99.90;;;;;;5092648;28;20728;-67
2024/01/17 12:39:57;;;;;;;14.03;8.87;;;1.50;99.90;;;;;;5092598;28;20462;-69